sensor_id;sensor_type;location;lat;lon;timestamp;P1;durP1;ratioP1;P2;durP2;ratioP2
28216;SDS011;15493;56.858;24.340;2023-11-22T07:07:50;74.60;;;23.35;;
28216;SDS011;15493;56.858;24.340;2023-11-22T07:10:17;57.97;;;22.40;;
28216;SDS011;15493;56.858;24.340;2023-11-22T07:12:47;39.85;;;16.75;;
28216;SDS011;15493;56.858;24.340;2023-11-22T07:15:14;45.72;;;18.00;;
28216;SDS011;15493;56.858;24.340;2023-11-22T07:17:41;56.80;;;18.77;;
28216;SDS011;15493;56.858;24.340;2023-11-22T07:20:09;62.40;;;22.48;;
28216;SDS011;15493;56.858;24.340;2023-11-22T07:22:42;64.10;;;22.65;;
28216;SDS011;15493;56.858;24.340;2023-11-22T07:25:09;46.55;;;19.40;;
28216;SDS011;15493;56.858;24.340;2023-11-22T07:27:45;65.68;;;21.55;;
28216;SDS011;15493;56.858;24.340;2023-11-22T07:30:13;63.28;;;20.73;;
28216;SDS011;15493;56.858;24.340;2023-11-22T07:32:40;65.85;;;23.23;;
28216;SDS011;15493;56.858;24.340;2023-11-22T07:35:07;56.75;;;22.35;;
28216;SDS011;15493;56.858;24.340;2023-11-22T07:37:35;46.47;;;19.92;;
28216;SDS011;15493;56.858;24.340;2023-11-22T07:40:03;48.50;;;20.35;;
28216;SDS011;15493;56.858;24.340;2023-11-22T07:42:30;49.03;;;19.35;;
28216;SDS011;15493;56.858;24.340;2023-11-22T07:44:58;65.55;;;23.33;;
28216;SDS011;15493;56.858;24.340;2023-11-22T07:47:25;55.03;;;21.25;;
28216;SDS011;15493;56.858;24.340;2023-11-22T07:49:52;57.03;;;21.73;;
28216;SDS011;15493;56.858;24.340;2023-11-22T07:52:22;62.60;;;21.33;;
28216;SDS011;15493;56.858;24.340;2023-11-22T07:54:53;68.88;;;22.70;;
28216;SDS011;15493;56.858;24.340;2023-11-22T07:57:20;54.85;;;20.35;;
28216;SDS011;15493;56.858;24.340;2023-11-22T07:59:49;63.95;;;23.02;;
28216;SDS011;15493;56.858;24.340;2023-11-22T08:02:18;74.60;;;26.95;;
28216;SDS011;15493;56.858;24.340;2023-11-22T08:04:45;54.63;;;21.50;;
28216;SDS011;15493;56.858;24.340;2023-11-22T08:07:14;54.58;;;22.80;;
28216;SDS011;15493;56.858;24.340;2023-11-22T08:09:41;48.45;;;19.20;;
28216;SDS011;15493;56.858;24.340;2023-11-22T08:12:09;40.30;;;16.65;;
28216;SDS011;15493;56.858;24.340;2023-11-22T08:14:37;42.50;;;18.17;;
28216;SDS011;15493;56.858;24.340;2023-11-22T08:17:04;39.65;;;16.65;;
28216;SDS011;15493;56.858;24.340;2023-11-22T08:19:32;35.33;;;15.95;;
28216;SDS011;15493;56.858;24.340;2023-11-22T08:21:59;26.17;;;12.85;;
28216;SDS011;15493;56.858;24.340;2023-11-22T08:24:26;23.85;;;12.38;;
28216;SDS011;15493;56.858;24.340;2023-11-22T08:26:54;27.67;;;13.00;;
28216;SDS011;15493;56.858;24.340;2023-11-22T08:29:21;29.58;;;14.20;;
28216;SDS011;15493;56.858;24.340;2023-11-22T08:31:48;36.35;;;14.40;;
28216;SDS011;15493;56.858;24.340;2023-11-22T08:34:17;34.08;;;15.50;;
28216;SDS011;15493;56.858;24.340;2023-11-22T09:13:36;19.33;;;9.32;;
28216;SDS011;15493;56.858;24.340;2023-11-22T09:16:03;14.18;;;7.55;;
28216;SDS011;15493;56.858;24.340;2023-11-22T09:18:32;15.98;;;6.97;;
28216;SDS011;15493;56.858;24.340;2023-11-22T09:20:59;16.88;;;6.93;;
28216;SDS011;15493;56.858;24.340;2023-11-22T09:23:26;18.30;;;8.63;;
28216;SDS011;15493;56.858;24.340;2023-11-22T09:25:54;26.13;;;11.45;;
28216;SDS011;15493;56.858;24.340;2023-11-22T09:28:21;11.40;;;6.80;;
28216;SDS011;15493;56.858;24.340;2023-11-22T09:30:48;9.68;;;5.90;;
28216;SDS011;15493;56.858;24.340;2023-11-22T09:33:16;21.60;;;10.05;;
28216;SDS011;15493;56.858;24.340;2023-11-22T09:35:45;11.38;;;5.05;;
28216;SDS011;15493;56.858;24.340;2023-11-22T09:38:14;26.08;;;11.82;;
28216;SDS011;15493;56.858;24.340;2023-11-22T09:43:10;9.88;;;6.28;;
28216;SDS011;15493;56.858;24.340;2023-11-22T09:45:37;9.85;;;5.28;;
28216;SDS011;15493;56.858;24.340;2023-11-22T09:50:50;12.93;;;5.40;;
28216;SDS011;15493;56.858;24.340;2023-11-22T09:54:04;13.48;;;4.80;;
28216;SDS011;15493;56.858;24.340;2023-11-22T09:56:05;8.65;;;4.95;;
28216;SDS011;15493;56.858;24.340;2023-11-22T09:58:34;11.27;;;4.50;;
28216;SDS011;15493;56.858;24.340;2023-11-22T10:01:02;10.10;;;4.03;;
28216;SDS011;15493;56.858;24.340;2023-11-22T10:03:30;14.85;;;8.35;;
28216;SDS011;15493;56.858;24.340;2023-11-22T10:05:58;35.92;;;12.02;;
28216;SDS011;15493;56.858;24.340;2023-11-22T10:08:26;26.40;;;11.82;;
28216;SDS011;15493;56.858;24.340;2023-11-22T10:10:57;10.85;;;5.82;;
28216;SDS011;15493;56.858;24.340;2023-11-22T10:13:24;47.70;;;17.65;;
28216;SDS011;15493;56.858;24.340;2023-11-22T10:15:52;32.20;;;12.10;;
28216;SDS011;15493;56.858;24.340;2023-11-22T10:18:19;14.48;;;6.90;;
28216;SDS011;15493;56.858;24.340;2023-11-22T10:20:48;12.13;;;6.68;;
28216;SDS011;15493;56.858;24.340;2023-11-22T10:23:16;20.50;;;8.77;;
28216;SDS011;15493;56.858;24.340;2023-11-22T10:25:44;16.55;;;7.22;;
28216;SDS011;15493;56.858;24.340;2023-11-22T10:28:13;25.38;;;11.85;;
28216;SDS011;15493;56.858;24.340;2023-11-22T10:30:41;8.38;;;4.63;;
28216;SDS011;15493;56.858;24.340;2023-11-22T10:33:09;5.43;;;3.55;;
28216;SDS011;15493;56.858;24.340;2023-11-22T10:35:43;4.40;;;3.50;;
28216;SDS011;15493;56.858;24.340;2023-11-22T10:38:14;3.40;;;2.75;;
28216;SDS011;15493;56.858;24.340;2023-11-22T10:40:42;4.35;;;2.97;;
28216;SDS011;15493;56.858;24.340;2023-11-22T10:43:12;7.45;;;3.70;;
28216;SDS011;15493;56.858;24.340;2023-11-22T10:45:40;13.00;;;3.13;;
28216;SDS011;15493;56.858;24.340;2023-11-22T10:48:13;6.88;;;3.88;;
28216;SDS011;15493;56.858;24.340;2023-11-22T10:50:43;3.83;;;2.85;;
28216;SDS011;15493;56.858;24.340;2023-11-22T10:53:11;3.80;;;3.28;;
28216;SDS011;15493;56.858;24.340;2023-11-22T10:55:42;4.32;;;2.92;;
28216;SDS011;15493;56.858;24.340;2023-11-22T10:58:11;4.55;;;3.17;;
28216;SDS011;15493;56.858;24.340;2023-11-22T11:00:41;6.07;;;4.25;;
28216;SDS011;15493;56.858;24.340;2023-11-22T11:03:19;4.88;;;3.47;;
28216;SDS011;15493;56.858;24.340;2023-11-22T11:05:58;3.22;;;2.75;;
28216;SDS011;15493;56.858;24.340;2023-11-22T11:08:27;3.65;;;3.10;;
28216;SDS011;15493;56.858;24.340;2023-11-22T11:10:55;8.65;;;2.72;;
28216;SDS011;15493;56.858;24.340;2023-11-22T11:13:23;5.25;;;2.90;;
28216;SDS011;15493;56.858;24.340;2023-11-22T11:15:51;3.90;;;3.25;;
28216;SDS011;15493;56.858;24.340;2023-11-22T11:18:19;6.72;;;3.17;;
28216;SDS011;15493;56.858;24.340;2023-11-22T11:20:54;4.13;;;2.67;;
28216;SDS011;15493;56.858;24.340;2023-11-22T11:23:23;4.07;;;3.15;;
28216;SDS011;15493;56.858;24.340;2023-11-22T11:25:55;3.67;;;2.85;;
28216;SDS011;15493;56.858;24.340;2023-11-22T11:28:23;3.53;;;2.53;;
28216;SDS011;15493;56.858;24.340;2023-11-22T11:30:54;6.47;;;3.08;;
28216;SDS011;15493;56.858;24.340;2023-11-22T11:33:55;3.13;;;2.22;;
28216;SDS011;15493;56.858;24.340;2023-11-22T11:36:22;2.67;;;2.37;;
28216;SDS011;15493;56.858;24.340;2023-11-22T11:38:53;4.63;;;2.95;;
28216;SDS011;15493;56.858;24.340;2023-11-22T11:41:27;3.70;;;2.67;;
28216;SDS011;15493;56.858;24.340;2023-11-22T11:43:55;2.58;;;2.05;;
28216;SDS011;15493;56.858;24.340;2023-11-22T11:46:24;4.60;;;2.28;;
28216;SDS011;15493;56.858;24.340;2023-11-22T11:48:55;3.35;;;2.33;;
28216;SDS011;15493;56.858;24.340;2023-11-22T11:51:23;4.38;;;2.45;;
28216;SDS011;15493;56.858;24.340;2023-11-22T11:53:51;4.55;;;1.85;;
28216;SDS011;15493;56.858;24.340;2023-11-22T11:56:19;3.05;;;2.20;;
28216;SDS011;15493;56.858;24.340;2023-11-22T11:58:48;5.20;;;2.60;;
28216;SDS011;15493;56.858;24.340;2023-11-22T12:01:16;2.72;;;1.40;;
28216;SDS011;15493;56.858;24.340;2023-11-22T12:03:44;2.08;;;1.65;;
28216;SDS011;15493;56.858;24.340;2023-11-22T12:06:15;2.72;;;2.30;;
28216;SDS011;15493;56.858;24.340;2023-11-22T12:08:45;4.00;;;2.00;;
28216;SDS011;15493;56.858;24.340;2023-11-22T12:11:14;3.28;;;1.95;;
28216;SDS011;15493;56.858;24.340;2023-11-22T12:13:42;2.30;;;1.80;;
28216;SDS011;15493;56.858;24.340;2023-11-22T12:16:16;6.35;;;2.55;;
28216;SDS011;15493;56.858;24.340;2023-11-22T12:18:46;3.78;;;2.67;;
28216;SDS011;15493;56.858;24.340;2023-11-22T12:21:18;6.93;;;2.57;;
28216;SDS011;15493;56.858;24.340;2023-11-22T12:23:46;5.03;;;3.40;;
28216;SDS011;15493;56.858;24.340;2023-11-22T12:26:15;4.97;;;3.08;;
28216;SDS011;15493;56.858;24.340;2023-11-22T12:28:48;6.47;;;3.85;;
28216;SDS011;15493;56.858;24.340;2023-11-22T12:31:30;10.35;;;4.40;;
28216;SDS011;15493;56.858;24.340;2023-11-22T12:34:02;7.00;;;4.25;;
28216;SDS011;15493;56.858;24.340;2023-11-22T12:36:30;7.82;;;4.00;;
28216;SDS011;15493;56.858;24.340;2023-11-22T12:38:57;8.00;;;4.10;;
28216;SDS011;15493;56.858;24.340;2023-11-22T12:41:28;9.38;;;4.28;;
28216;SDS011;15493;56.858;24.340;2023-11-22T12:44:05;14.93;;;4.82;;
28216;SDS011;15493;56.858;24.340;2023-11-22T12:49:28;9.90;;;4.90;;
28216;SDS011;15493;56.858;24.340;2023-11-22T12:51:55;11.45;;;5.95;;
28216;SDS011;15493;56.858;24.340;2023-11-22T12:54:26;9.30;;;4.28;;
